sensor_id;sensor_type;location;lat;lon;timestamp;P1;durP1;ratioP1;P2;durP2;ratioP2
19903;SDS011;10114;50.970;4.962;2022-11-04T00:01:19;5.75;;;2.05;;
19903;SDS011;10114;50.970;4.962;2022-11-04T00:03:46;9.15;;;1.85;;
19903;SDS011;10114;50.970;4.962;2022-11-04T00:06:12;9.18;;;2.20;;
19903;SDS011;10114;50.970;4.962;2022-11-04T00:08:38;9.18;;;2.63;;
19903;SDS011;10114;50.970;4.962;2022-11-04T00:11:04;8.50;;;2.58;;
19903;SDS011;10114;50.970;4.962;2022-11-04T00:13:48;4.80;;;2.10;;
19903;SDS011;10114;50.970;4.962;2022-11-04T00:16:15;5.20;;;2.30;;
19903;SDS011;10114;50.970;4.962;2022-11-04T00:18:59;5.00;;;1.92;;
19903;SDS011;10114;50.970;4.962;2022-11-04T00:21:26;6.00;;;2.05;;
19903;SDS011;10114;50.970;4.962;2022-11-04T00:24:11;4.90;;;1.95;;
19903;SDS011;10114;50.970;4.962;2022-11-04T00:26:56;9.13;;;1.90;;
19903;SDS011;10114;50.970;4.962;2022-11-04T00:29:41;8.82;;;2.13;;
19903;SDS011;10114;50.970;4.962;2022-11-04T00:32:07;8.38;;;2.28;;
19903;SDS011;10114;50.970;4.962;2022-11-04T00:34:51;6.22;;;1.67;;
19903;SDS011;10114;50.970;4.962;2022-11-04T00:37:17;7.60;;;1.90;;
19903;SDS011;10114;50.970;4.962;2022-11-04T00:39:44;7.53;;;1.40;;
19903;SDS011;10114;50.970;4.962;2022-11-04T00:42:10;6.40;;;1.75;;
19903;SDS011;10114;50.970;4.962;2022-11-04T00:44:36;6.68;;;1.77;;
19903;SDS011;10114;50.970;4.962;2022-11-04T00:47:02;6.18;;;1.73;;
19903;SDS011;10114;50.970;4.962;2022-11-04T00:49:28;12.15;;;1.60;;
19903;SDS011;10114;50.970;4.962;2022-11-04T00:51:54;7.75;;;2.17;;
19903;SDS011;10114;50.970;4.962;2022-11-04T00:54:20;8.75;;;1.88;;
19903;SDS011;10114;50.970;4.962;2022-11-04T00:56:46;10.40;;;2.38;;
19903;SDS011;10114;50.970;4.962;2022-11-04T00:59:12;7.63;;;1.60;;
19903;SDS011;10114;50.970;4.962;2022-11-04T01:01:39;5.45;;;1.80;;
19903;SDS011;10114;50.970;4.962;2022-11-04T01:04:05;7.95;;;1.85;;
19903;SDS011;10114;50.970;4.962;2022-11-04T01:06:31;7.20;;;1.83;;
19903;SDS011;10114;50.970;4.962;2022-11-04T01:08:58;12.20;;;1.92;;
19903;SDS011;10114;50.970;4.962;2022-11-04T01:11:25;6.45;;;1.67;;
19903;SDS011;10114;50.970;4.962;2022-11-04T01:13:52;7.28;;;1.90;;
19903;SDS011;10114;50.970;4.962;2022-11-04T01:16:18;6.15;;;1.70;;
19903;SDS011;10114;50.970;4.962;2022-11-04T01:18:44;8.55;;;1.77;;
19903;SDS011;10114;50.970;4.962;2022-11-04T01:21:11;8.10;;;1.60;;
19903;SDS011;10114;50.970;4.962;2022-11-04T01:23:38;11.45;;;2.58;;
19903;SDS011;10114;50.970;4.962;2022-11-04T01:26:05;9.45;;;2.05;;
19903;SDS011;10114;50.970;4.962;2022-11-04T01:28:32;7.03;;;2.15;;
19903;SDS011;10114;50.970;4.962;2022-11-04T01:30:58;6.60;;;1.63;;
19903;SDS011;10114;50.970;4.962;2022-11-04T01:33:24;16.00;;;2.17;;
19903;SDS011;10114;50.970;4.962;2022-11-04T01:35:50;8.68;;;1.70;;
19903;SDS011;10114;50.970;4.962;2022-11-04T01:38:16;12.02;;;2.38;;
19903;SDS011;10114;50.970;4.962;2022-11-04T01:40:43;6.93;;;1.85;;
19903;SDS011;10114;50.970;4.962;2022-11-04T01:43:16;7.28;;;1.90;;
19903;SDS011;10114;50.970;4.962;2022-11-04T01:46:01;10.38;;;2.47;;
19903;SDS011;10114;50.970;4.962;2022-11-04T01:48:28;9.40;;;2.17;;
19903;SDS011;10114;50.970;4.962;2022-11-04T01:50:55;10.27;;;1.67;;
19903;SDS011;10114;50.970;4.962;2022-11-04T01:55:55;5.45;;;1.70;;
19903;SDS011;10114;50.970;4.962;2022-11-04T01:58:32;9.27;;;1.98;;
19903;SDS011;10114;50.970;4.962;2022-11-04T02:01:00;14.13;;;2.78;;
19903;SDS011;10114;50.970;4.962;2022-11-04T02:03:30;11.80;;;2.10;;
19903;SDS011;10114;50.970;4.962;2022-11-04T02:05:57;6.63;;;1.40;;
19903;SDS011;10114;50.970;4.962;2022-11-04T02:08:23;9.52;;;1.67;;
19903;SDS011;10114;50.970;4.962;2022-11-04T02:10:51;11.38;;;1.80;;
19903;SDS011;10114;50.970;4.962;2022-11-04T02:13:19;9.75;;;1.92;;
19903;SDS011;10114;50.970;4.962;2022-11-04T02:16:31;7.60;;;1.75;;
19903;SDS011;10114;50.970;4.962;2022-11-04T02:23:40;8.82;;;2.17;;
19903;SDS011;10114;50.970;4.962;2022-11-04T02:29:27;12.23;;;1.80;;
19903;SDS011;10114;50.970;4.962;2022-11-04T02:34:06;9.63;;;1.60;;
19903;SDS011;10114;50.970;4.962;2022-11-04T02:39:07;14.40;;;2.03;;
19903;SDS011;10114;50.970;4.962;2022-11-04T02:41:40;7.75;;;1.70;;
19903;SDS011;10114;50.970;4.962;2022-11-04T02:46:37;9.48;;;2.08;;
19903;SDS011;10114;50.970;4.962;2022-11-04T02:49:07;9.75;;;1.98;;
19903;SDS011;10114;50.970;4.962;2022-11-04T02:51:35;7.45;;;1.45;;
19903;SDS011;10114;50.970;4.962;2022-11-04T02:54:04;9.15;;;2.25;;
19903;SDS011;10114;50.970;4.962;2022-11-04T02:56:31;10.77;;;2.53;;
19903;SDS011;10114;50.970;4.962;2022-11-04T02:59:04;14.43;;;2.45;;
19903;SDS011;10114;50.970;4.962;2022-11-04T03:01:33;8.35;;;2.03;;
19903;SDS011;10114;50.970;4.962;2022-11-04T03:04:04;10.25;;;2.90;;
19903;SDS011;10114;50.970;4.962;2022-11-04T03:06:31;15.20;;;4.15;;
19903;SDS011;10114;50.970;4.962;2022-11-04T03:08:58;5.90;;;2.65;;
19903;SDS011;10114;50.970;4.962;2022-11-04T03:11:25;11.43;;;2.45;;
19903;SDS011;10114;50.970;4.962;2022-11-04T03:13:53;11.70;;;3.20;;
19903;SDS011;10114;50.970;4.962;2022-11-04T03:16:24;12.07;;;2.97;;
19903;SDS011;10114;50.970;4.962;2022-11-04T03:19:00;9.02;;;3.28;;
19903;SDS011;10114;50.970;4.962;2022-11-04T03:21:27;11.55;;;3.20;;
19903;SDS011;10114;50.970;4.962;2022-11-04T03:23:56;14.75;;;3.10;;
19903;SDS011;10114;50.970;4.962;2022-11-04T03:26:38;18.48;;;3.50;;
19903;SDS011;10114;50.970;4.962;2022-11-04T03:31:46;10.50;;;3.20;;
19903;SDS011;10114;50.970;4.962;2022-11-04T03:34:15;10.00;;;3.17;;
19903;SDS011;10114;50.970;4.962;2022-11-04T03:36:41;12.75;;;3.35;;
19903;SDS011;10114;50.970;4.962;2022-11-04T03:39:07;8.73;;;3.20;;
19903;SDS011;10114;50.970;4.962;2022-11-04T03:41:34;12.05;;;3.40;;
19903;SDS011;10114;50.970;4.962;2022-11-04T03:44:03;8.57;;;3.22;;
19903;SDS011;10114;50.970;4.962;2022-11-04T03:46:29;11.15;;;3.60;;
19903;SDS011;10114;50.970;4.962;2022-11-04T03:48:55;12.20;;;3.80;;
19903;SDS011;10114;50.970;4.962;2022-11-04T03:51:22;7.30;;;3.03;;
19903;SDS011;10114;50.970;4.962;2022-11-04T03:53:48;10.10;;;3.08;;
19903;SDS011;10114;50.970;4.962;2022-11-04T03:56:30;12.73;;;3.30;;
19903;SDS011;10114;50.970;4.962;2022-11-04T03:59:17;14.90;;;4.13;;
19903;SDS011;10114;50.970;4.962;2022-11-04T04:01:53;14.02;;;3.38;;
19903;SDS011;10114;50.970;4.962;2022-11-04T04:04:27;9.35;;;3.28;;
19903;SDS011;10114;50.970;4.962;2022-11-04T04:07:00;11.40;;;3.25;;
19903;SDS011;10114;50.970;4.962;2022-11-04T04:09:30;10.88;;;3.00;;
19903;SDS011;10114;50.970;4.962;2022-11-04T04:12:02;10.20;;;2.95;;
19903;SDS011;10114;50.970;4.962;2022-11-04T04:14:31;8.60;;;3.40;;
19903;SDS011;10114;50.970;4.962;2022-11-04T04:19:34;6.47;;;2.78;;
19903;SDS011;10114;50.970;4.962;2022-11-04T04:22:02;12.55;;;3.15;;
19903;SDS011;10114;50.970;4.962;2022-11-04T04:24:31;14.50;;;3.00;;
19903;SDS011;10114;50.970;4.962;2022-11-04T04:27:17;10.60;;;3.05;;
19903;SDS011;10114;50.970;4.962;2022-11-04T04:30:10;14.10;;;3.33;;
19903;SDS011;10114;50.970;4.962;2022-11-04T04:35:26;17.90;;;3.42;;
19903;SDS011;10114;50.970;4.962;2022-11-04T04:38:27;11.52;;;2.90;;
19903;SDS011;10114;50.970;4.962;2022-11-04T04:41:20;14.55;;;3.03;;
19903;SDS011;10114;50.970;4.962;2022-11-04T04:44:15;13.07;;;2.70;;
19903;SDS011;10114;50.970;4.962;2022-11-04T04:47:03;10.93;;;2.67;;
19903;SDS011;10114;50.970;4.962;2022-11-04T04:49:30;9.35;;;2.90;;
19903;SDS011;10114;50.970;4.962;2022-11-04T04:51:59;9.90;;;2.50;;
19903;SDS011;10114;50.970;4.962;2022-11-04T04:54:26;12.02;;;2.78;;
19903;SDS011;10114;50.970;4.962;2022-11-04T04:56:52;10.98;;;2.67;;
19903;SDS011;10114;50.970;4.962;2022-11-04T04:59:18;8.85;;;2.30;;
19903;SDS011;10114;50.970;4.962;2022-11-04T05:01:44;12.43;;;2.80;;
19903;SDS011;10114;50.970;4.962;2022-11-04T05:04:10;7.90;;;2.83;;
19903;SDS011;10114;50.970;4.962;2022-11-04T05:06:36;7.47;;;2.33;;
19903;SDS011;10114;50.970;4.962;2022-11-04T05:09:02;13.25;;;2.80;;
19903;SDS011;10114;50.970;4.962;2022-11-04T05:11:28;15.18;;;3.63;;
19903;SDS011;10114;50.970;4.962;2022-11-04T05:13:54;7.95;;;2.85;;
19903;SDS011;10114;50.970;4.962;2022-11-04T05:16:21;14.50;;;2.40;;
19903;SDS011;10114;50.970;4.962;2022-11-04T05:18:47;12.95;;;2.72;;
19903;SDS011;10114;50.970;4.962;2022-11-04T05:21:13;10.13;;;2.53;;
19903;SDS011;10114;50.970;4.962;2022-11-04T05:23:39;10.50;;;2.70;;
19903;SDS011;10114;50.970;4.962;2022-11-04T05:26:05;10.18;;;2.40;;
19903;SDS011;10114;50.970;4.962;2022-11-04T05:28:31;11.32;;;3.47;;
19903;SDS011;10114;50.970;4.962;2022-11-04T05:31:01;13.10;;;2.50;;
19903;SDS011;10114;50.970;4.962;2022-11-04T05:33:27;18.45;;;2.70;;
19903;SDS011;10114;50.970;4.962;2022-11-04T05:36:03;13.90;;;2.67;;
19903;SDS011;10114;50.970;4.962;2022-11-04T05:38:29;11.13;;;2.75;;
19903;SDS011;10114;50.970;4.962;2022-11-04T05:40:56;17.70;;;2.80;;
19903;SDS011;10114;50.970;4.962;2022-11-04T05:43:22;9.10;;;2.35;;
19903;SDS011;10114;50.970;4.962;2022-11-04T05:45:48;18.85;;;5.53;;
19903;SDS011;10114;50.970;4.962;2022-11-04T05:48:14;11.40;;;2.58;;
19903;SDS011;10114;50.970;4.962;2022-11-04T05:50:40;10.43;;;2.45;;
19903;SDS011;10114;50.970;4.962;2022-11-04T05:53:07;12.40;;;2.50;;
19903;SDS011;10114;50.970;4.962;2022-11-04T05:55:33;10.35;;;2.13;;
19903;SDS011;10114;50.970;4.962;2022-11-04T05:57:59;10.45;;;2.28;;
19903;SDS011;10114;50.970;4.962;2022-11-04T06:00:25;9.15;;;2.47;;
19903;SDS011;10114;50.970;4.962;2022-11-04T06:02:52;18.30;;;5.40;;
19903;SDS011;10114;50.970;4.962;2022-11-04T06:05:21;11.13;;;2.42;;
19903;SDS011;10114;50.970;4.962;2022-11-04T06:07:47;7.53;;;2.42;;
19903;SDS011;10114;50.970;4.962;2022-11-04T06:10:13;7.22;;;2.28;;
19903;SDS011;10114;50.970;4.962;2022-11-04T06:12:39;6.47;;;2.10;;
19903;SDS011;10114;50.970;4.962;2022-11-04T06:15:05;8.80;;;2.40;;
19903;SDS011;10114;50.970;4.962;2022-11-04T06:17:31;10.20;;;2.08;;
19903;SDS011;10114;50.970;4.962;2022-11-04T06:19:57;12.80;;;2.40;;
19903;SDS011;10114;50.970;4.962;2022-11-04T06:22:23;14.35;;;2.30;;
19903;SDS011;10114;50.970;4.962;2022-11-04T06:24:49;7.40;;;2.10;;
19903;SDS011;10114;50.970;4.962;2022-11-04T06:27:15;7.63;;;1.77;;
19903;SDS011;10114;50.970;4.962;2022-11-04T06:29:41;10.15;;;2.40;;
19903;SDS011;10114;50.970;4.962;2022-11-04T06:32:08;13.95;;;2.72;;
19903;SDS011;10114;50.970;4.962;2022-11-04T06:34:34;13.20;;;2.60;;
19903;SDS011;10114;50.970;4.962;2022-11-04T06:37:00;11.10;;;2.65;;
19903;SDS011;10114;50.970;4.962;2022-11-04T06:39:26;8.25;;;1.95;;
19903;SDS011;10114;50.970;4.962;2022-11-04T06:41:52;13.95;;;2.78;;
19903;SDS011;10114;50.970;4.962;2022-11-04T06:44:18;10.88;;;2.60;;
19903;SDS011;10114;50.970;4.962;2022-11-04T06:46:44;13.13;;;2.80;;
19903;SDS011;10114;50.970;4.962;2022-11-04T06:49:14;10.23;;;2.47;;
19903;SDS011;10114;50.970;4.962;2022-11-04T06:51:44;6.70;;;2.40;;
19903;SDS011;10114;50.970;4.962;2022-11-04T06:54:11;12.23;;;2.25;;
19903;SDS011;10114;50.970;4.962;2022-11-04T06:56:37;13.75;;;3.38;;
19903;SDS011;10114;50.970;4.962;2022-11-04T06:59:03;7.95;;;2.35;;
19903;SDS011;10114;50.970;4.962;2022-11-04T07:01:31;7.45;;;2.58;;
19903;SDS011;10114;50.970;4.962;2022-11-04T07:03:58;12.75;;;3.45;;
19903;SDS011;10114;50.970;4.962;2022-11-04T07:06:24;8.40;;;2.42;;
19903;SDS011;10114;50.970;4.962;2022-11-04T07:08:51;8.40;;;2.72;;
19903;SDS011;10114;50.970;4.962;2022-11-04T07:11:20;12.57;;;2.38;;
19903;SDS011;10114;50.970;4.962;2022-11-04T07:13:46;9.77;;;2.20;;
19903;SDS011;10114;50.970;4.962;2022-11-04T07:16:13;8.98;;;2.13;;
19903;SDS011;10114;50.970;4.962;2022-11-04T07:18:39;9.95;;;1.77;;
19903;SDS011;10114;50.970;4.962;2022-11-04T07:21:05;11.20;;;2.15;;
19903;SDS011;10114;50.970;4.962;2022-11-04T07:23:32;9.88;;;2.17;;
19903;SDS011;10114;50.970;4.962;2022-11-04T07:25:58;10.75;;;2.08;;
19903;SDS011;10114;50.970;4.962;2022-11-04T07:28:24;9.50;;;2.53;;
19903;SDS011;10114;50.970;4.962;2022-11-04T07:30:50;14.82;;;2.60;;
19903;SDS011;10114;50.970;4.962;2022-11-04T07:33:16;16.70;;;2.55;;
19903;SDS011;10114;50.970;4.962;2022-11-04T07:35:42;8.30;;;2.33;;
19903;SDS011;10114;50.970;4.962;2022-11-04T07:38:09;9.18;;;2.30;;
19903;SDS011;10114;50.970;4.962;2022-11-04T07:40:35;11.55;;;2.08;;
19903;SDS011;10114;50.970;4.962;2022-11-04T07:43:03;9.70;;;2.50;;
19903;SDS011;10114;50.970;4.962;2022-11-04T07:45:29;11.15;;;2.92;;
19903;SDS011;10114;50.970;4.962;2022-11-04T07:47:55;8.10;;;2.33;;
19903;SDS011;10114;50.970;4.962;2022-11-04T07:50:22;11.32;;;2.78;;
19903;SDS011;10114;50.970;4.962;2022-11-04T07:52:48;14.45;;;3.47;;
19903;SDS011;10114;50.970;4.962;2022-11-04T07:55:15;9.63;;;2.25;;
19903;SDS011;10114;50.970;4.962;2022-11-04T07:57:43;10.35;;;2.42;;
19903;SDS011;10114;50.970;4.962;2022-11-04T08:00:09;9.18;;;2.45;;
19903;SDS011;10114;50.970;4.962;2022-11-04T08:02:35;6.07;;;2.00;;
19903;SDS011;10114;50.970;4.962;2022-11-04T08:05:01;15.85;;;2.72;;
19903;SDS011;10114;50.970;4.962;2022-11-04T08:07:30;10.57;;;2.28;;
19903;SDS011;10114;50.970;4.962;2022-11-04T08:09:56;16.75;;;2.60;;
19903;SDS011;10114;50.970;4.962;2022-11-04T08:12:22;13.82;;;2.35;;
19903;SDS011;10114;50.970;4.962;2022-11-04T08:14:48;14.20;;;2.90;;
19903;SDS011;10114;50.970;4.962;2022-11-04T08:17:14;13.88;;;2.78;;
19903;SDS011;10114;50.970;4.962;2022-11-04T08:19:41;8.90;;;2.40;;
19903;SDS011;10114;50.970;4.962;2022-11-04T08:22:07;8.52;;;2.28;;
19903;SDS011;10114;50.970;4.962;2022-11-04T08:24:33;9.48;;;2.13;;
19903;SDS011;10114;50.970;4.962;2022-11-04T08:27:00;10.93;;;2.55;;
19903;SDS011;10114;50.970;4.962;2022-11-04T08:29:26;10.55;;;2.67;;
19903;SDS011;10114;50.970;4.962;2022-11-04T08:31:52;13.88;;;2.55;;
19903;SDS011;10114;50.970;4.962;2022-11-04T08:34:18;12.70;;;3.00;;
19903;SDS011;10114;50.970;4.962;2022-11-04T08:36:44;9.93;;;2.83;;
19903;SDS011;10114;50.970;4.962;2022-11-04T08:39:11;9.23;;;2.33;;
19903;SDS011;10114;50.970;4.962;2022-11-04T08:41:38;6.28;;;2.38;;
19903;SDS011;10114;50.970;4.962;2022-11-04T08:44:05;12.70;;;2.80;;
19903;SDS011;10114;50.970;4.962;2022-11-04T08:46:33;10.48;;;2.70;;
19903;SDS011;10114;50.970;4.962;2022-11-04T08:48:59;10.43;;;2.30;;
19903;SDS011;10114;50.970;4.962;2022-11-04T08:51:25;8.25;;;2.30;;
19903;SDS011;10114;50.970;4.962;2022-11-04T08:53:52;12.75;;;2.50;;
19903;SDS011;10114;50.970;4.962;2022-11-04T08:56:20;11.10;;;2.40;;
19903;SDS011;10114;50.970;4.962;2022-11-04T08:58:46;8.48;;;2.50;;
19903;SDS011;10114;50.970;4.962;2022-11-04T09:01:13;10.90;;;2.75;;
19903;SDS011;10114;50.970;4.962;2022-11-04T09:03:39;8.05;;;2.25;;
19903;SDS011;10114;50.970;4.962;2022-11-04T09:06:06;9.15;;;2.42;;
19903;SDS011;10114;50.970;4.962;2022-11-04T09:08:33;6.57;;;1.90;;
19903;SDS011;10114;50.970;4.962;2022-11-04T09:11:01;10.40;;;2.53;;
19903;SDS011;10114;50.970;4.962;2022-11-04T09:13:31;6.40;;;1.90;;
19903;SDS011;10114;50.970;4.962;2022-11-04T09:15:57;11.52;;;2.75;;
19903;SDS011;10114;50.970;4.962;2022-11-04T09:18:23;9.35;;;2.08;;
19903;SDS011;10114;50.970;4.962;2022-11-04T09:20:49;12.07;;;2.00;;
19903;SDS011;10114;50.970;4.962;2022-11-04T09:23:15;8.02;;;1.90;;
19903;SDS011;10114;50.970;4.962;2022-11-04T09:25:41;9.05;;;2.10;;
19903;SDS011;10114;50.970;4.962;2022-11-04T09:28:07;9.55;;;2.08;;
19903;SDS011;10114;50.970;4.962;2022-11-04T09:30:33;7.60;;;2.25;;
19903;SDS011;10114;50.970;4.962;2022-11-04T09:32:59;15.43;;;2.47;;
19903;SDS011;10114;50.970;4.962;2022-11-04T09:35:25;6.22;;;2.17;;
19903;SDS011;10114;50.970;4.962;2022-11-04T09:37:51;8.48;;;2.00;;
19903;SDS011;10114;50.970;4.962;2022-11-04T09:40:18;12.73;;;2.60;;
19903;SDS011;10114;50.970;4.962;2022-11-04T09:45:18;9.18;;;2.20;;
19903;SDS011;10114;50.970;4.962;2022-11-04T09:47:48;8.63;;;2.50;;
19903;SDS011;10114;50.970;4.962;2022-11-04T09:50:22;11.40;;;2.40;;
19903;SDS011;10114;50.970;4.962;2022-11-04T09:53:08;8.95;;;2.30;;
19903;SDS011;10114;50.970;4.962;2022-11-04T09:55:38;11.98;;;2.88;;
19903;SDS011;10114;50.970;4.962;2022-11-04T09:58:07;10.77;;;2.38;;
19903;SDS011;10114;50.970;4.962;2022-11-04T10:00:36;5.93;;;1.92;;
19903;SDS011;10114;50.970;4.962;2022-11-04T10:10:59;9.60;;;1.90;;
19903;SDS011;10114;50.970;4.962;2022-11-04T10:26:41;7.28;;;2.00;;
19903;SDS011;10114;50.970;4.962;2022-11-04T10:29:16;6.93;;;1.77;;
19903;SDS011;10114;50.970;4.962;2022-11-04T10:31:44;7.70;;;2.08;;
19903;SDS011;10114;50.970;4.962;2022-11-04T10:34:14;8.98;;;1.80;;
19903;SDS011;10114;50.970;4.962;2022-11-04T10:36:41;9.73;;;2.70;;
19903;SDS011;10114;50.970;4.962;2022-11-04T10:39:13;9.63;;;2.50;;
19903;SDS011;10114;50.970;4.962;2022-11-04T10:41:42;12.60;;;2.22;;
19903;SDS011;10114;50.970;4.962;2022-11-04T10:44:12;11.10;;;2.00;;
19903;SDS011;10114;50.970;4.962;2022-11-04T10:46:45;9.05;;;2.55;;
19903;SDS011;10114;50.970;4.962;2022-11-04T10:51:52;9.95;;;2.55;;
19903;SDS011;10114;50.970;4.962;2022-11-04T10:54:20;10.73;;;2.50;;
19903;SDS011;10114;50.970;4.962;2022-11-04T10:56:47;14.23;;;2.60;;
19903;SDS011;10114;50.970;4.962;2022-11-04T11:01:41;12.70;;;3.08;;
19903;SDS011;10114;50.970;4.962;2022-11-04T11:04:12;11.50;;;3.20;;
19903;SDS011;10114;50.970;4.962;2022-11-04T11:06:49;13.73;;;3.35;;
19903;SDS011;10114;50.970;4.962;2022-11-04T11:09:18;9.65;;;3.38;;
19903;SDS011;10114;50.970;4.962;2022-11-04T11:11:49;10.32;;;3.40;;
19903;SDS011;10114;50.970;4.962;2022-11-04T11:17:17;8.93;;;3.47;;
19903;SDS011;10114;50.970;4.962;2022-11-04T11:19:46;12.68;;;3.55;;
19903;SDS011;10114;50.970;4.962;2022-11-04T11:22:28;12.80;;;3.92;;
19903;SDS011;10114;50.970;4.962;2022-11-04T11:25:11;13.70;;;3.78;;
19903;SDS011;10114;50.970;4.962;2022-11-04T11:27:37;10.50;;;4.22;;
19903;SDS011;10114;50.970;4.962;2022-11-04T11:30:03;10.30;;;4.10;;
19903;SDS011;10114;50.970;4.962;2022-11-04T11:32:33;7.90;;;3.95;;
19903;SDS011;10114;50.970;4.962;2022-11-04T11:35:02;12.10;;;4.25;;
19903;SDS011;10114;50.970;4.962;2022-11-04T11:37:28;13.30;;;5.63;;
19903;SDS011;10114;50.970;4.962;2022-11-04T11:39:55;14.25;;;6.40;;
19903;SDS011;10114;50.970;4.962;2022-11-04T11:42:22;14.52;;;7.00;;
19903;SDS011;10114;50.970;4.962;2022-11-04T11:52:37;14.27;;;6.20;;
19903;SDS011;10114;50.970;4.962;2022-11-04T12:00:24;13.48;;;6.50;;
19903;SDS011;10114;50.970;4.962;2022-11-04T12:05:55;16.67;;;5.95;;
19903;SDS011;10114;50.970;4.962;2022-11-04T12:08:43;18.08;;;6.80;;
19903;SDS011;10114;50.970;4.962;2022-11-04T12:11:17;18.60;;;7.22;;
19903;SDS011;10114;50.970;4.962;2022-11-04T12:13:46;18.33;;;8.93;;
19903;SDS011;10114;50.970;4.962;2022-11-04T12:16:22;17.52;;;8.75;;
19903;SDS011;10114;50.970;4.962;2022-11-04T12:26:54;18.10;;;8.57;;
19903;SDS011;10114;50.970;4.962;2022-11-04T12:44:39;27.77;;;13.52;;
19903;SDS011;10114;50.970;4.962;2022-11-04T12:50:09;29.05;;;12.45;;
19903;SDS011;10114;50.970;4.962;2022-11-04T13:00:22;18.25;;;10.75;;
19903;SDS011;10114;50.970;4.962;2022-11-04T13:02:54;24.10;;;12.38;;
19903;SDS011;10114;50.970;4.962;2022-11-04T13:10:18;19.05;;;10.57;;
19903;SDS011;10114;50.970;4.962;2022-11-04T13:12:46;20.73;;;10.30;;
19903;SDS011;10114;50.970;4.962;2022-11-04T13:17:40;17.33;;;9.13;;
19903;SDS011;10114;50.970;4.962;2022-11-04T13:22:41;17.00;;;9.45;;
19903;SDS011;10114;50.970;4.962;2022-11-04T13:25:13;20.50;;;8.90;;
19903;SDS011;10114;50.970;4.962;2022-11-04T13:27:49;16.55;;;7.70;;
19903;SDS011;10114;50.970;4.962;2022-11-04T13:30:26;21.60;;;8.70;;
19903;SDS011;10114;50.970;4.962;2022-11-04T13:40:21;19.92;;;10.07;;
19903;SDS011;10114;50.970;4.962;2022-11-04T13:45:48;18.00;;;9.70;;
19903;SDS011;10114;50.970;4.962;2022-11-04T13:48:16;18.30;;;10.50;;
19903;SDS011;10114;50.970;4.962;2022-11-04T13:50:43;18.15;;;9.90;;
19903;SDS011;10114;50.970;4.962;2022-11-04T13:53:09;24.75;;;10.60;;
19903;SDS011;10114;50.970;4.962;2022-11-04T13:55:46;20.05;;;9.02;;
19903;SDS011;10114;50.970;4.962;2022-11-04T13:58:16;18.75;;;9.05;;
19903;SDS011;10114;50.970;4.962;2022-11-04T14:01:08;20.88;;;9.43;;
19903;SDS011;10114;50.970;4.962;2022-11-04T14:06:03;18.77;;;8.95;;
19903;SDS011;10114;50.970;4.962;2022-11-04T14:08:30;18.08;;;9.60;;
19903;SDS011;10114;50.970;4.962;2022-11-04T14:10:59;19.48;;;9.35;;
19903;SDS011;10114;50.970;4.962;2022-11-04T14:23:32;13.95;;;7.35;;
19903;SDS011;10114;50.970;4.962;2022-11-04T14:26:02;15.55;;;7.57;;
19903;SDS011;10114;50.970;4.962;2022-11-04T14:28:29;16.60;;;8.55;;
19903;SDS011;10114;50.970;4.962;2022-11-04T14:30:57;18.48;;;7.13;;
19903;SDS011;10114;50.970;4.962;2022-11-04T14:35:50;13.88;;;7.00;;
19903;SDS011;10114;50.970;4.962;2022-11-04T14:40:52;15.55;;;5.63;;
19903;SDS011;10114;50.970;4.962;2022-11-04T14:43:33;11.65;;;6.00;;
19903;SDS011;10114;50.970;4.962;2022-11-04T14:46:00;12.13;;;6.45;;
19903;SDS011;10114;50.970;4.962;2022-11-04T14:48:27;12.82;;;6.32;;
19903;SDS011;10114;50.970;4.962;2022-11-04T14:50:54;12.20;;;6.82;;
19903;SDS011;10114;50.970;4.962;2022-11-04T14:53:25;17.75;;;6.85;;
19903;SDS011;10114;50.970;4.962;2022-11-04T14:56:03;13.40;;;6.65;;
19903;SDS011;10114;50.970;4.962;2022-11-04T14:58:29;14.00;;;6.45;;
19903;SDS011;10114;50.970;4.962;2022-11-04T15:00:59;12.20;;;6.28;;
19903;SDS011;10114;50.970;4.962;2022-11-04T15:03:26;14.88;;;5.28;;
19903;SDS011;10114;50.970;4.962;2022-11-04T15:05:58;9.23;;;4.85;;
19903;SDS011;10114;50.970;4.962;2022-11-04T15:10:58;7.05;;;2.90;;
19903;SDS011;10114;50.970;4.962;2022-11-04T15:13:24;9.38;;;3.00;;
19903;SDS011;10114;50.970;4.962;2022-11-04T15:15:51;7.97;;;2.97;;
19903;SDS011;10114;50.970;4.962;2022-11-04T15:18:22;9.63;;;3.40;;
19903;SDS011;10114;50.970;4.962;2022-11-04T15:20:51;8.20;;;3.88;;
19903;SDS011;10114;50.970;4.962;2022-11-04T15:23:22;8.30;;;4.00;;
19903;SDS011;10114;50.970;4.962;2022-11-04T15:25:51;7.68;;;3.40;;
19903;SDS011;10114;50.970;4.962;2022-11-04T15:28:21;11.93;;;3.95;;
19903;SDS011;10114;50.970;4.962;2022-11-04T15:31:05;8.45;;;3.92;;
19903;SDS011;10114;50.970;4.962;2022-11-04T15:33:36;8.82;;;3.60;;
19903;SDS011;10114;50.970;4.962;2022-11-04T15:36:03;7.30;;;3.40;;
19903;SDS011;10114;50.970;4.962;2022-11-04T15:38:30;8.77;;;3.85;;
19903;SDS011;10114;50.970;4.962;2022-11-04T15:40:57;11.30;;;4.10;;
19903;SDS011;10114;50.970;4.962;2022-11-04T15:43:43;10.15;;;3.50;;
19903;SDS011;10114;50.970;4.962;2022-11-04T15:46:15;13.57;;;4.10;;
19903;SDS011;10114;50.970;4.962;2022-11-04T15:48:41;6.95;;;3.47;;
19903;SDS011;10114;50.970;4.962;2022-11-04T15:51:18;12.80;;;3.70;;
19903;SDS011;10114;50.970;4.962;2022-11-04T15:53:56;10.68;;;3.55;;
19903;SDS011;10114;50.970;4.962;2022-11-04T15:56:25;8.82;;;3.92;;
19903;SDS011;10114;50.970;4.962;2022-11-04T15:58:51;8.15;;;4.00;;
19903;SDS011;10114;50.970;4.962;2022-11-04T16:01:18;12.15;;;3.72;;
19903;SDS011;10114;50.970;4.962;2022-11-04T16:03:48;12.23;;;4.40;;
19903;SDS011;10114;50.970;4.962;2022-11-04T16:06:15;13.45;;;5.07;;
19903;SDS011;10114;50.970;4.962;2022-11-04T16:08:41;11.10;;;4.68;;
19903;SDS011;10114;50.970;4.962;2022-11-04T16:11:11;10.55;;;4.47;;
19903;SDS011;10114;50.970;4.962;2022-11-04T16:13:38;12.85;;;4.50;;
19903;SDS011;10114;50.970;4.962;2022-11-04T16:16:18;8.73;;;3.50;;
19903;SDS011;10114;50.970;4.962;2022-11-04T16:18:49;7.70;;;3.25;;
19903;SDS011;10114;50.970;4.962;2022-11-04T16:21:34;9.63;;;3.35;;
19903;SDS011;10114;50.970;4.962;2022-11-04T16:24:08;10.57;;;4.38;;
19903;SDS011;10114;50.970;4.962;2022-11-04T16:26:42;8.82;;;2.75;;
19903;SDS011;10114;50.970;4.962;2022-11-04T16:29:19;6.15;;;2.85;;
19903;SDS011;10114;50.970;4.962;2022-11-04T16:32:02;6.88;;;2.33;;
19903;SDS011;10114;50.970;4.962;2022-11-04T16:34:29;8.88;;;2.70;;
19903;SDS011;10114;50.970;4.962;2022-11-04T16:36:57;6.97;;;2.88;;
19903;SDS011;10114;50.970;4.962;2022-11-04T16:39:23;8.23;;;3.20;;
19903;SDS011;10114;50.970;4.962;2022-11-04T16:41:49;8.18;;;2.55;;
19903;SDS011;10114;50.970;4.962;2022-11-04T16:44:19;11.07;;;2.70;;
19903;SDS011;10114;50.970;4.962;2022-11-04T16:46:46;6.80;;;1.92;;
19903;SDS011;10114;50.970;4.962;2022-11-04T16:49:13;5.63;;;2.35;;
19903;SDS011;10114;50.970;4.962;2022-11-04T16:51:39;6.32;;;2.10;;
19903;SDS011;10114;50.970;4.962;2022-11-04T16:54:06;9.90;;;2.70;;
19903;SDS011;10114;50.970;4.962;2022-11-04T16:56:33;8.75;;;2.95;;
19903;SDS011;10114;50.970;4.962;2022-11-04T16:58:59;5.28;;;2.65;;
19903;SDS011;10114;50.970;4.962;2022-11-04T17:01:25;7.40;;;2.53;;
19903;SDS011;10114;50.970;4.962;2022-11-04T17:03:52;4.85;;;2.28;;
19903;SDS011;10114;50.970;4.962;2022-11-04T17:06:18;7.95;;;3.00;;
19903;SDS011;10114;50.970;4.962;2022-11-04T17:08:44;7.13;;;2.88;;
19903;SDS011;10114;50.970;4.962;2022-11-04T17:11:10;7.32;;;2.85;;
19903;SDS011;10114;50.970;4.962;2022-11-04T17:13:36;7.93;;;2.80;;
19903;SDS011;10114;50.970;4.962;2022-11-04T17:16:03;8.07;;;2.83;;
19903;SDS011;10114;50.970;4.962;2022-11-04T17:18:30;8.82;;;3.00;;
19903;SDS011;10114;50.970;4.962;2022-11-04T17:20:57;6.57;;;2.50;;